createdAt,value
2017-09-11T00:00:07.169Z,91.49
2017-09-11T00:02:35.480Z,91.78
2017-09-11T00:05:03.775Z,91.96
2017-09-11T00:07:32.312Z,92.12
2017-09-11T00:10:01.074Z,92.17
2017-09-11T00:12:30.200Z,92.30
2017-09-11T00:14:58.558Z,92.38
2017-09-11T00:17:27.642Z,92.40
2017-09-11T00:19:56.718Z,92.39
2017-09-11T00:22:25.972Z,92.39
2017-09-11T00:24:54.269Z,92.29
2017-09-11T00:27:22.551Z,92.19
2017-09-11T00:29:50.846Z,92.02
2017-09-11T00:32:19.142Z,91.93
2017-09-11T00:34:47.466Z,91.90
2017-09-11T00:37:15.761Z,91.68
2017-09-11T00:39:44.830Z,91.52
2017-09-11T00:42:13.151Z,91.30
2017-09-11T00:44:42.221Z,91.06
2017-09-11T00:47:11.911Z,90.95
2017-09-11T00:49:40.229Z,91.13
2017-09-11T00:52:09.305Z,91.22
2017-09-11T00:54:37.638Z,91.39
2017-09-11T00:57:05.958Z,91.48
2017-09-11T00:59:34.555Z,91.40
2017-09-11T01:02:02.881Z,91.39
2017-09-11T01:04:33.627Z,91.32
2017-09-11T01:07:03.662Z,91.05
2017-09-11T01:09:32.007Z,90.80
2017-09-11T01:12:01.075Z,90.74
2017-09-11T01:14:29.409Z,90.59
2017-09-11T01:16:57.711Z,90.04
2017-09-11T01:19:26.700Z,89.81
2017-09-11T01:21:55.028Z,89.59
2017-09-11T01:24:23.354Z,89.42
2017-09-11T01:26:51.727Z,89.41
2017-09-11T01:29:20.071Z,89.50
2017-09-11T01:31:48.411Z,89.25
2017-09-11T01:34:18.379Z,89.13
2017-09-11T01:36:46.715Z,89.05
2017-09-11T01:39:16.330Z,89.12
2017-09-11T01:41:44.660Z,89.09
2017-09-11T01:44:15.154Z,89.07
2017-09-11T01:46:43.630Z,88.90
2017-09-11T01:49:11.977Z,88.64
2017-09-11T01:51:41.031Z,88.49
2017-09-11T01:54:09.381Z,88.24
2017-09-11T01:56:37.696Z,88.22
2017-09-11T01:59:06.000Z,88.10
2017-09-11T02:01:34.346Z,87.85
2017-09-11T02:04:02.730Z,87.74
2017-09-11T02:06:31.069Z,88.18
2017-09-11T02:09:00.207Z,88.04
2017-09-11T02:11:28.513Z,87.83
2017-09-11T02:13:56.818Z,87.85
2017-09-11T02:16:25.184Z,87.92
2017-09-11T02:18:54.332Z,88.00
2017-09-11T02:21:22.673Z,87.99
2017-09-11T02:23:51.014Z,87.86
2017-09-11T02:26:19.410Z,87.89
2017-09-11T02:28:47.755Z,87.86
2017-09-11T02:31:17.646Z,87.71
2017-09-11T02:33:45.955Z,87.31
2017-09-11T02:36:15.019Z,87.24
2017-09-11T02:38:43.319Z,87.21
2017-09-11T02:41:11.665Z,87.15
2017-09-11T02:43:40.008Z,87.33
2017-09-11T02:46:09.155Z,87.98
2017-09-11T02:48:37.474Z,88.34
2017-09-11T02:51:06.599Z,88.85
2017-09-11T02:53:34.916Z,89.43
2017-09-11T02:56:05.060Z,89.75
2017-09-11T02:58:33.386Z,89.85
2017-09-11T03:01:02.479Z,89.90
2017-09-11T03:03:31.588Z,89.96
2017-09-11T03:05:59.979Z,89.82
2017-09-11T03:08:29.920Z,89.80
2017-09-11T03:10:58.446Z,89.79
2017-09-11T03:13:27.688Z,89.77
2017-09-11T03:15:56.641Z,89.43
2017-09-11T03:18:24.966Z,89.30
2017-09-11T03:20:53.871Z,89.20
2017-09-11T03:23:22.207Z,89.00
2017-09-11T03:25:50.552Z,89.15
2017-09-11T03:28:19.068Z,89.37
2017-09-11T03:30:47.402Z,89.78
2017-09-11T03:33:15.749Z,89.98
2017-09-11T03:35:44.093Z,90.15
2017-09-11T03:38:12.633Z,90.28
2017-09-11T03:40:41.702Z,90.29
2017-09-11T03:43:10.350Z,90.39
2017-09-11T03:45:38.655Z,90.57
2017-09-11T03:48:06.998Z,90.71
2017-09-11T03:50:35.384Z,90.78
2017-09-11T03:53:03.685Z,90.84
2017-09-11T03:55:31.987Z,90.94
2017-09-11T03:58:00.337Z,90.88
2017-09-11T04:00:29.464Z,90.78
2017-09-11T04:02:57.799Z,90.81
2017-09-11T04:05:26.878Z,90.83
2017-09-11T04:07:55.986Z,90.90
2017-09-11T04:10:25.069Z,91.12
2017-09-11T04:12:53.386Z,91.28
2017-09-11T04:15:22.459Z,91.56
2017-09-11T04:17:51.578Z,91.53
2017-09-11T04:20:19.963Z,91.64
2017-09-11T04:22:49.035Z,92.32
2017-09-11T04:25:17.419Z,92.77
2017-09-11T04:27:45.723Z,93.32
2017-09-11T04:30:16.396Z,93.81
2017-09-11T04:32:44.706Z,93.97
2017-09-11T04:35:13.078Z,94.12
2017-09-11T04:37:41.421Z,94.24
2017-09-11T04:40:09.739Z,94.32
2017-09-11T04:42:38.131Z,94.56
2017-09-11T04:45:06.452Z,94.67
2017-09-11T04:47:35.762Z,94.92
2017-09-11T04:50:05.669Z,94.96
2017-09-11T04:52:34.735Z,94.83
2017-09-11T04:55:03.038Z,94.81
2017-09-11T04:57:32.222Z,94.92
2017-09-11T05:00:01.602Z,94.94
2017-09-11T05:02:29.904Z,94.95
2017-09-11T05:04:58.204Z,95.09
2017-09-11T05:07:27.332Z,95.20
2017-09-11T05:09:56.413Z,95.21
2017-09-11T05:12:24.779Z,95.01
2017-09-11T05:14:53.098Z,94.88
2017-09-11T05:17:22.198Z,94.88
2017-09-11T05:19:50.686Z,94.78
2017-09-11T05:22:19.723Z,94.78
2017-09-11T05:24:48.569Z,94.70
2017-09-11T05:27:17.767Z,94.65
2017-09-11T05:29:46.068Z,94.65
2017-09-11T05:32:15.163Z,94.53
2017-09-11T05:34:44.228Z,94.47
2017-09-11T05:37:12.576Z,94.40
2017-09-11T05:39:40.934Z,94.16
2017-09-11T05:42:10.007Z,94.07
2017-09-11T05:44:38.456Z,93.68
2017-09-11T05:47:06.801Z,93.22
2017-09-11T05:49:35.104Z,92.52
2017-09-11T05:52:03.395Z,91.68
2017-09-11T05:54:31.716Z,91.19
2017-09-11T05:57:00.039Z,90.38
2017-09-11T05:59:28.353Z,89.79
2017-09-11T06:01:56.652Z,89.40
2017-09-11T06:04:25.743Z,88.68
2017-09-11T06:06:54.049Z,88.68
2017-09-11T06:09:23.167Z,88.76
2017-09-11T06:11:52.655Z,88.96
2017-09-11T06:14:20.951Z,89.19
2017-09-11T06:16:50.033Z,89.26
2017-09-11T06:19:19.219Z,89.04
2017-09-11T06:21:47.676Z,89.37
2017-09-11T06:24:16.804Z,89.36
2017-09-11T06:26:46.780Z,89.57
2017-09-11T06:29:16.296Z,90.02
2017-09-11T06:31:44.894Z,90.45
2017-09-11T06:34:13.360Z,91.00
2017-09-11T06:37:10.047Z,91.44
2017-09-11T06:39:38.400Z,91.75
2017-09-11T06:42:06.857Z,91.66
2017-09-11T06:44:35.380Z,91.50
2017-09-11T06:47:03.666Z,91.62
2017-09-11T06:49:32.500Z,91.26
2017-09-11T06:52:00.788Z,90.82
2017-09-11T06:54:29.332Z,90.58
2017-09-11T06:56:57.623Z,90.67
2017-09-11T06:59:26.423Z,90.60
2017-09-11T07:01:55.046Z,90.40
2017-09-11T07:04:23.783Z,89.91
2017-09-11T07:06:52.242Z,89.75
2017-09-11T07:09:21.526Z,89.45
2017-09-11T07:11:49.806Z,89.29
2017-09-11T07:14:18.143Z,89.06
2017-09-11T07:16:46.439Z,88.87
2017-09-11T07:19:14.737Z,88.71
2017-09-11T07:21:43.257Z,88.39
2017-09-11T07:24:11.919Z,87.80
2017-09-11T07:26:41.184Z,87.24
2017-09-11T07:29:10.306Z,87.12
2017-09-11T07:31:39.620Z,87.00
2017-09-11T07:34:07.993Z,86.50
2017-09-11T07:36:36.306Z,85.39
2017-09-11T07:39:04.887Z,84.62
2017-09-11T07:41:33.167Z,84.25
2017-09-11T07:44:01.849Z,84.03
2017-09-11T07:46:30.166Z,84.15
2017-09-11T07:48:59.365Z,83.49
2017-09-11T07:51:27.759Z,82.68
2017-09-11T07:53:57.048Z,82.01
2017-09-11T07:56:27.190Z,81.41
2017-09-11T07:58:55.500Z,80.42
2017-09-11T08:01:24.005Z,78.98
2017-09-11T08:03:52.377Z,77.01
2017-09-11T08:06:20.714Z,75.72
2017-09-11T08:08:49.004Z,75.20
2017-09-11T08:11:17.326Z,74.38
2017-09-11T08:13:45.691Z,74.52
2017-09-11T08:16:14.257Z,74.58
2017-09-11T08:18:42.545Z,75.29
2017-09-11T08:21:11.247Z,76.12
2017-09-11T08:23:39.624Z,76.36
2017-09-11T08:26:08.072Z,76.14
2017-09-11T08:28:36.353Z,75.92
2017-09-11T08:31:04.960Z,76.17
2017-09-11T08:33:33.329Z,76.28
2017-09-11T08:36:02.375Z,76.34
2017-09-11T08:38:30.695Z,76.58
2017-09-11T08:40:58.970Z,76.50
2017-09-11T08:43:27.346Z,75.22
2017-09-11T08:45:55.726Z,73.45
2017-09-11T08:48:24.265Z,71.77
2017-09-11T08:50:52.798Z,71.62
2017-09-11T08:53:21.303Z,70.60
2017-09-11T08:55:50.935Z,69.51
2017-09-11T08:58:19.215Z,69.21
2017-09-11T09:00:47.763Z,68.65
2017-09-11T09:03:16.139Z,67.95
2017-09-11T09:05:44.672Z,67.41
2017-09-11T09:08:13.779Z,66.37
2017-09-11T09:10:42.268Z,67.34
2017-09-11T09:13:10.693Z,66.54
2017-09-11T09:15:39.891Z,65.62
2017-09-11T09:18:08.419Z,65.60
2017-09-11T09:20:36.858Z,65.60
2017-09-11T09:23:05.282Z,66.36
2017-09-11T09:25:33.686Z,65.42
2017-09-11T09:28:02.496Z,64.14
2017-09-11T09:30:31.404Z,63.61
2017-09-11T09:33:00.058Z,63.52
2017-09-11T09:35:28.713Z,63.03
2017-09-11T09:37:57.525Z,62.10
2017-09-11T09:40:26.638Z,62.53
2017-09-11T09:42:55.405Z,61.72
2017-09-11T09:45:23.827Z,60.80
2017-09-11T09:47:52.375Z,60.42
2017-09-11T09:50:20.995Z,61.11
2017-09-11T09:52:49.518Z,60.35
2017-09-11T09:55:18.016Z,59.26
2017-09-11T09:57:46.571Z,58.72
2017-09-11T10:00:15.065Z,58.28
2017-09-11T10:02:43.499Z,58.75
2017-09-11T10:05:11.987Z,58.95
2017-09-11T10:07:42.086Z,58.29
2017-09-11T10:10:10.530Z,57.34
2017-09-11T10:12:38.960Z,56.75
2017-09-11T10:15:07.629Z,56.78
2017-09-11T10:17:36.211Z,57.60
2017-09-11T10:20:04.513Z,57.65
2017-09-11T10:22:32.830Z,57.11
2017-09-11T10:25:01.385Z,56.70
2017-09-11T10:27:29.714Z,57.54
2017-09-11T10:29:58.285Z,57.54
2017-09-11T10:32:27.612Z,58.04
2017-09-11T10:34:55.907Z,58.63
2017-09-11T10:37:24.224Z,59.15
2017-09-11T10:39:52.623Z,59.00
2017-09-11T10:42:21.026Z,59.34
2017-09-11T10:44:49.390Z,58.49
2017-09-11T10:47:17.875Z,57.57
2017-09-11T10:49:46.271Z,57.77
2017-09-11T10:52:15.430Z,56.85
2017-09-11T10:54:44.617Z,56.61
2017-09-11T10:57:12.959Z,56.42
2017-09-11T10:59:42.300Z,56.78
2017-09-11T11:02:10.751Z,57.09
2017-09-11T11:04:39.091Z,56.84
2017-09-11T11:07:07.446Z,56.34
2017-09-11T11:09:35.834Z,55.91
2017-09-11T11:12:04.961Z,56.02
2017-09-11T11:14:33.274Z,56.10
2017-09-11T11:17:02.392Z,54.52
2017-09-11T11:19:30.815Z,52.75
2017-09-11T11:22:00.155Z,52.16
2017-09-11T11:24:28.774Z,52.84
2017-09-11T11:26:57.108Z,53.91
2017-09-11T11:29:25.550Z,55.01
2017-09-11T11:31:53.843Z,56.81
2017-09-11T11:34:22.183Z,59.25
2017-09-11T11:36:51.285Z,60.11
2017-09-11T11:39:19.855Z,60.58
2017-09-11T11:41:48.166Z,60.54
2017-09-11T11:44:16.694Z,61.11
2017-09-11T11:46:45.053Z,60.71
2017-09-11T11:49:13.456Z,62.36
2017-09-11T11:51:41.811Z,65.03
2017-09-11T11:54:10.099Z,67.85
2017-09-11T11:56:38.779Z,71.57
2017-09-11T11:59:07.126Z,76.41
2017-09-11T12:01:36.342Z,79.13
2017-09-11T12:04:05.480Z,80.15
2017-09-11T12:06:33.884Z,79.03
2017-09-11T12:09:02.294Z,78.05
2017-09-11T12:11:31.361Z,76.75
2017-09-11T12:13:59.938Z,78.12
2017-09-11T12:16:28.320Z,77.81
2017-09-11T12:18:56.745Z,77.61
2017-09-11T12:21:25.106Z,76.35
2017-09-11T12:23:54.218Z,76.50
2017-09-11T12:26:23.190Z,75.91
2017-09-11T12:28:51.556Z,76.10
2017-09-11T12:31:19.892Z,75.87
2017-09-11T12:33:48.787Z,75.88
2017-09-11T12:36:17.857Z,77.29
2017-09-11T12:38:46.185Z,77.57
2017-09-11T12:41:15.379Z,77.06
2017-09-11T12:43:44.614Z,77.34
2017-09-11T12:46:12.971Z,77.14
2017-09-11T12:48:42.268Z,76.56
2017-09-11T12:51:11.420Z,76.92
2017-09-11T12:53:39.922Z,76.63
2017-09-11T12:56:08.224Z,76.94
2017-09-11T12:58:37.295Z,76.75
2017-09-11T13:01:05.696Z,77.12
2017-09-11T13:03:34.090Z,79.52
2017-09-11T13:06:03.330Z,81.50
2017-09-11T13:08:31.736Z,82.35
2017-09-11T13:11:00.192Z,82.57
2017-09-11T13:13:28.474Z,81.95
2017-09-11T13:15:56.753Z,81.46
2017-09-11T13:18:25.313Z,81.12
2017-09-11T13:20:54.449Z,79.15
2017-09-11T13:23:22.882Z,78.79
2017-09-11T13:25:51.728Z,79.21
2017-09-11T13:28:20.022Z,79.64
2017-09-11T13:30:48.298Z,79.09
2017-09-11T13:33:16.715Z,79.39
2017-09-11T13:35:46.040Z,79.97
2017-09-11T13:38:14.324Z,80.03
2017-09-11T13:40:42.887Z,79.48
2017-09-11T13:43:11.219Z,79.97
2017-09-11T13:45:40.514Z,80.17
2017-09-11T13:48:08.910Z,79.85
2017-09-11T13:50:37.392Z,80.02
2017-09-11T13:53:05.750Z,80.29
2017-09-11T13:55:34.118Z,80.68
2017-09-11T13:58:02.587Z,81.73
2017-09-11T14:00:31.237Z,82.00
2017-09-11T14:02:59.537Z,81.85
2017-09-11T14:05:27.958Z,81.86
2017-09-11T14:07:56.338Z,81.69
2017-09-11T14:10:24.734Z,81.68
2017-09-11T14:12:53.372Z,82.55
2017-09-11T14:15:21.772Z,83.22
2017-09-11T14:17:50.815Z,84.96
2017-09-11T14:20:19.939Z,86.51
2017-09-11T14:22:48.236Z,87.50
2017-09-11T14:25:16.533Z,88.05
2017-09-11T14:27:44.901Z,88.53
2017-09-11T14:30:13.366Z,88.88
2017-09-11T14:32:41.852Z,88.53
2017-09-11T14:35:10.148Z,86.54
2017-09-11T14:37:38.640Z,84.72
2017-09-11T14:40:06.926Z,82.93
2017-09-11T14:42:35.253Z,82.01
2017-09-11T14:45:04.878Z,82.31
2017-09-11T14:47:34.056Z,83.18
2017-09-11T14:50:02.547Z,84.04
2017-09-11T14:52:30.904Z,84.40
2017-09-11T14:54:59.249Z,84.46
2017-09-11T14:57:27.660Z,84.31
2017-09-11T14:59:55.939Z,83.72
2017-09-11T15:02:24.357Z,82.70
2017-09-11T15:04:52.688Z,81.87
2017-09-11T15:07:20.999Z,82.07
2017-09-11T15:09:49.290Z,82.19
2017-09-11T15:12:17.699Z,81.94
2017-09-11T15:14:46.927Z,81.58
2017-09-11T15:17:15.981Z,81.23
2017-09-11T15:19:44.527Z,81.32
2017-09-11T15:22:12.932Z,81.82
2017-09-11T15:24:41.227Z,81.86
2017-09-11T15:27:09.750Z,81.43
2017-09-11T15:29:38.847Z,81.87
2017-09-11T15:32:07.408Z,81.53
2017-09-11T15:34:35.696Z,80.97
2017-09-11T15:37:04.045Z,81.17
2017-09-11T15:39:32.386Z,81.79
2017-09-11T15:42:00.681Z,82.77
2017-09-11T15:44:29.004Z,82.90
2017-09-11T15:46:58.144Z,82.62
2017-09-11T15:49:28.128Z,83.12
2017-09-11T15:51:56.784Z,83.71
2017-09-11T15:54:25.224Z,84.44
2017-09-11T15:56:54.271Z,84.93
2017-09-11T15:59:22.924Z,85.41
2017-09-11T16:01:52.061Z,85.27
2017-09-11T16:04:20.543Z,85.53
2017-09-11T16:06:49.467Z,85.80
2017-09-11T16:09:17.859Z,85.69
2017-09-11T16:11:47.007Z,86.01
2017-09-11T16:14:15.362Z,86.07
2017-09-11T16:16:45.102Z,86.12
2017-09-11T16:19:13.461Z,86.30
2017-09-11T16:21:42.551Z,86.79
2017-09-11T16:24:12.046Z,87.18
2017-09-11T16:26:41.055Z,87.20
2017-09-11T16:29:10.416Z,87.09
2017-09-11T16:31:39.696Z,87.14
2017-09-11T16:34:08.077Z,87.11
2017-09-11T16:36:36.583Z,87.17
2017-09-11T16:39:05.346Z,87.47
2017-09-11T16:41:33.640Z,88.47
2017-09-11T16:44:02.096Z,89.61
2017-09-11T16:46:31.314Z,90.33
2017-09-11T16:49:00.534Z,90.72
2017-09-11T16:51:30.303Z,91.03
2017-09-11T16:53:58.793Z,91.06
2017-09-11T16:56:28.291Z,91.37
2017-09-11T16:58:57.529Z,91.76
2017-09-11T17:01:25.940Z,92.13
2017-09-11T17:03:54.403Z,92.22
2017-09-11T17:06:24.250Z,92.48
2017-09-11T17:09:28.772Z,92.65
2017-09-11T17:11:57.465Z,92.78
2017-09-11T17:14:25.963Z,92.86
2017-09-11T17:16:54.935Z,92.90
2017-09-11T17:19:23.515Z,93.08
2017-09-11T17:21:53.866Z,93.31
2017-09-11T17:24:22.359Z,93.61
2017-09-11T17:26:50.886Z,93.69
2017-09-11T17:29:19.421Z,93.77
2017-09-11T17:31:48.214Z,93.94
2017-09-11T17:34:16.821Z,94.02
2017-09-11T17:36:46.359Z,94.04
2017-09-11T17:39:14.901Z,94.16
2017-09-11T17:41:44.665Z,94.42
2017-09-11T17:44:13.343Z,94.59
2017-09-11T17:46:41.763Z,94.71
2017-09-11T17:49:11.151Z,94.75
2017-09-11T17:51:39.946Z,94.93
2017-09-11T17:54:08.655Z,95.09
2017-09-11T17:56:38.232Z,95.18
2017-09-11T17:59:06.730Z,95.37
2017-09-11T18:01:35.564Z,95.46
2017-09-11T18:04:04.069Z,95.57
2017-09-11T18:06:32.794Z,95.57
2017-09-11T18:09:01.131Z,95.58
2017-09-11T18:11:29.691Z,95.60
2017-09-11T18:13:58.172Z,95.74
2017-09-11T18:16:28.856Z,95.71
2017-09-11T18:18:57.655Z,95.57
2017-09-11T18:21:26.472Z,95.64
2017-09-11T18:23:55.013Z,95.62
2017-09-11T18:26:23.607Z,95.58
2017-09-11T18:28:52.129Z,95.54
2017-09-11T18:31:20.488Z,95.44
2017-09-11T18:33:49.148Z,95.18
2017-09-11T18:36:17.607Z,95.56
2017-09-11T18:38:47.660Z,95.51
2017-09-11T18:41:16.473Z,95.36
2017-09-11T18:43:45.115Z,95.24
2017-09-11T18:46:14.635Z,95.24
2017-09-11T18:48:43.442Z,95.39
2017-09-11T18:51:11.871Z,95.34
2017-09-11T18:53:40.619Z,95.61
2017-09-11T18:56:10.545Z,95.81
2017-09-11T18:58:38.946Z,95.74
2017-09-11T19:01:08.109Z,95.77
2017-09-11T19:03:37.308Z,95.89
2017-09-11T19:06:05.751Z,95.96
2017-09-11T19:08:34.471Z,96.04
2017-09-11T19:11:04.007Z,96.09
2017-09-11T19:13:32.513Z,96.15
2017-09-11T19:16:01.027Z,96.25
2017-09-11T19:18:29.326Z,96.18
2017-09-11T19:20:58.392Z,96.15
2017-09-11T19:23:26.688Z,96.14
2017-09-11T19:25:54.984Z,95.93
2017-09-11T19:28:23.275Z,95.76
2017-09-11T19:30:52.335Z,95.64
2017-09-11T19:33:20.634Z,95.75
2017-09-11T19:35:48.927Z,95.68
2017-09-11T19:38:17.974Z,95.62
2017-09-11T19:40:46.251Z,95.76
2017-09-11T19:43:14.527Z,95.79
2017-09-11T19:45:42.823Z,95.71
2017-09-11T19:48:11.145Z,95.82
2017-09-11T19:50:39.446Z,95.68
2017-09-11T19:53:08.490Z,95.64
2017-09-11T19:55:36.791Z,95.86
2017-09-11T19:58:05.069Z,96.05
2017-09-11T20:00:34.120Z,96.12
2017-09-11T20:03:02.424Z,96.37
2017-09-11T20:05:30.705Z,96.41
2017-09-11T20:07:58.992Z,96.41
2017-09-11T20:10:27.279Z,96.37
2017-09-11T20:12:55.556Z,96.41
2017-09-11T20:15:24.611Z,96.45
2017-09-11T20:17:53.646Z,96.32
2017-09-11T20:20:21.932Z,96.28
2017-09-11T20:22:50.216Z,96.48
2017-09-11T20:25:18.503Z,96.60
2017-09-11T20:27:46.797Z,96.71
2017-09-11T20:30:15.076Z,96.63
2017-09-11T20:32:43.357Z,96.68
2017-09-11T20:35:11.654Z,96.78
2017-09-11T20:37:39.930Z,96.87
2017-09-11T20:40:08.210Z,97.01
2017-09-11T20:42:36.491Z,97.14
2017-09-11T20:45:04.794Z,97.13
2017-09-11T20:47:33.837Z,97.32
2017-09-11T20:50:02.168Z,97.42
2017-09-11T20:52:31.229Z,97.49
2017-09-11T20:54:59.527Z,97.52
2017-09-11T20:57:27.806Z,97.58
2017-09-11T20:59:56.094Z,97.69
2017-09-11T21:02:24.383Z,97.70
2017-09-11T21:04:52.667Z,97.66
2017-09-11T21:07:21.717Z,97.67
2017-09-11T21:09:50.002Z,97.71
2017-09-11T21:12:18.283Z,97.74
2017-09-11T21:14:46.574Z,97.75
2017-09-11T21:17:14.854Z,97.81
2017-09-11T21:19:43.139Z,97.73
2017-09-11T21:22:11.430Z,97.77
2017-09-11T21:24:39.711Z,97.94
2017-09-11T21:27:07.990Z,98.03
2017-09-11T21:29:36.266Z,98.09
2017-09-11T21:32:04.566Z,98.10
2017-09-11T21:34:32.841Z,98.07
2017-09-11T21:37:01.131Z,98.08
2017-09-11T21:39:30.195Z,98.04
2017-09-11T21:41:58.475Z,98.06
2017-09-11T21:44:26.762Z,98.05
2017-09-11T21:46:55.050Z,98.07
2017-09-11T21:49:23.336Z,98.08
2017-09-11T21:51:51.619Z,98.13
2017-09-11T21:54:19.893Z,98.12
2017-09-11T21:56:48.185Z,98.06
2017-09-11T21:59:16.460Z,98.04
2017-09-11T22:01:44.747Z,98.02
2017-09-11T22:04:13.024Z,98.02
2017-09-11T22:06:42.798Z,98.01
2017-09-11T22:09:11.087Z,97.99
2017-09-11T22:11:39.366Z,98.03
2017-09-11T22:14:07.643Z,98.02
2017-09-11T22:16:35.930Z,98.05
2017-09-11T22:19:04.210Z,98.02
2017-09-11T22:21:32.491Z,98.10
2017-09-11T22:24:00.779Z,98.19
2017-09-11T22:26:29.058Z,98.20
2017-09-11T22:28:57.355Z,98.17
2017-09-11T22:31:25.631Z,98.23
2017-09-11T22:33:53.903Z,98.17
2017-09-11T22:36:22.174Z,98.18
2017-09-11T22:38:50.466Z,98.17
2017-09-11T22:41:18.741Z,98.19
2017-09-11T22:43:47.021Z,98.20
2017-09-11T22:46:15.327Z,98.20
2017-09-11T22:48:43.629Z,98.24
2017-09-11T22:51:11.910Z,98.30
2017-09-11T22:53:40.190Z,98.35
2017-09-11T22:56:09.252Z,98.37
2017-09-11T22:58:37.537Z,98.38
2017-09-11T23:01:05.831Z,98.43
2017-09-11T23:03:34.135Z,98.40
2017-09-11T23:06:02.424Z,98.37
2017-09-11T23:08:31.470Z,98.47
2017-09-11T23:10:59.758Z,98.52
2017-09-11T23:13:28.034Z,98.51
2017-09-11T23:15:56.330Z,98.57
2017-09-11T23:18:24.617Z,98.65
2017-09-11T23:20:52.909Z,98.67
2017-09-11T23:23:21.195Z,98.75
2017-09-11T23:25:49.487Z,98.76
2017-09-11T23:28:18.544Z,98.78
2017-09-11T23:30:47.604Z,98.83
2017-09-11T23:33:15.883Z,98.90
2017-09-11T23:35:44.168Z,98.84
2017-09-11T23:38:12.457Z,98.81
2017-09-11T23:40:40.748Z,98.76
2017-09-11T23:43:09.043Z,98.80
2017-09-11T23:45:37.338Z,98.88
2017-09-11T23:48:05.618Z,98.98
2017-09-11T23:50:33.908Z,99.02
2017-09-11T23:53:02.201Z,99.01
2017-09-11T23:55:30.495Z,98.99
2017-09-11T23:57:59.539Z,98.99
